Time;durP1;ratioP1;P1;durP2;ratioP2;P2;SDS_P1;SDS_P2;PMS_P1;PMS_P2;Temp;Humidity;BMP_temperature;BMP_pressure;BME280_temperature;BME280_humidity;BME280_pressure;Samples;Min_cycle;Max_cycle;Signal;HPM_P1;HPM_P2
2022/11/05 00:11:14;;;;;;;6.93;1.63;;;;;;;9.83;100.00;98741.91;5092104;28;20169;-44
2022/11/05 00:19:08;;;;;;;5.05;1.63;;;;;;;10.14;100.00;98749.31;5091502;28;20066;-44
2022/11/05 00:27:07;;;;;;;3.38;1.42;;;;;;;10.25;100.00;98763.66;5091947;28;20086;-44
2022/11/05 00:29:33;;;;;;;6.05;1.48;;;;;;;10.34;100.00;98767.78;5090345;28;20425;-44
2022/11/05 00:31:59;;;;;;;9.77;1.92;;;;;;;10.30;100.00;98768.34;5091525;28;20622;-44
2022/11/05 00:34:25;;;;;;;6.03;1.58;;;;;;;10.19;100.00;98782.81;5090261;28;20036;-44
2022/11/05 00:36:50;;;;;;;8.60;6.22;;;;;;;10.06;100.00;98778.31;5091552;28;20069;-44
2022/11/05 00:39:16;;;;;;;3.30;1.27;;;;;;;10.07;100.00;98777.31;5090264;28;20062;-44
2022/11/05 00:41:41;;;;;;;6.45;1.40;;;;;;;10.06;100.00;98774.88;5091427;28;20031;-44
2022/11/05 00:49:28;;;;;;;6.55;2.03;;;;;;;10.43;100.00;98768.41;5091491;28;20028;-44
2022/11/05 00:49:37;;;;;;;8.75;1.42;;;;;;;10.39;100.00;98769.81;5091477;28;20583;-44
2022/11/05 00:54:47;;;;;;;5.03;1.30;;;;;;;10.29;100.00;98774.59;5091721;28;20444;-44
2022/11/05 00:57:13;;;;;;;7.95;1.40;;;;;;;10.32;100.00;98767.16;5091387;28;20017;-44
2022/11/05 00:59:38;;;;;;;9.05;1.50;;;;;;;10.37;100.00;98782.31;5091360;28;20032;-44
2022/11/05 01:02:04;;;;;;;3.28;1.13;;;;;;;10.41;100.00;98774.88;5089981;28;20508;-44
2022/11/05 01:04:30;;;;;;;9.00;1.70;;;;;;;10.42;100.00;98785.13;5093400;28;20054;-44
2022/11/05 01:06:55;;;;;;;5.00;1.20;;;;;;;10.49;100.00;98791.22;5095022;28;20052;-44
2022/11/05 01:09:21;;;;;;;4.18;1.65;;;;;;;10.55;100.00;98785.19;5095295;28;20470;-44
2022/11/05 01:11:47;;;;;;;2.85;1.38;;;;;;;10.53;100.00;98795.06;5094920;28;20570;-44
2022/11/05 01:14:17;;;;;;;4.68;1.50;;;;;;;10.44;100.00;98804.13;5094859;28;20027;-44
2022/11/05 01:16:44;;;;;;;12.75;1.95;;;;;;;10.31;100.00;98797.00;5094848;28;20035;-44
2022/11/05 01:19:10;;;;;;;3.47;1.20;;;;;;;10.33;100.00;98797.63;5094517;28;20512;-45
2022/11/05 01:21:36;;;;;;;7.97;1.98;;;;;;;10.39;100.00;98803.91;5094724;28;20024;-44
2022/11/05 01:24:03;;;;;;;4.80;1.70;;;;;;;10.36;100.00;98804.28;5094713;28;20409;-44
2022/11/05 01:26:29;;;;;;;7.57;1.80;;;;;;;10.22;100.00;98805.22;5094711;28;20525;-44
2022/11/05 01:28:57;;;;;;;4.78;2.10;;;;;;;10.31;100.00;98809.31;5094656;28;20028;-44
2022/11/05 01:31:23;;;;;;;4.15;1.85;;;;;;;10.50;100.00;98813.84;5093182;28;20111;-44
2022/11/05 01:33:49;;;;;;;8.30;1.73;;;;;;;10.73;100.00;98810.88;5093176;28;20035;-44
2022/11/05 01:36:16;;;;;;;8.50;2.03;;;;;;;11.05;100.00;98811.16;5093477;28;20079;-44
2022/11/05 01:38:41;;;;;;;6.93;2.30;;;;;;;11.22;100.00;98816.81;5094458;28;20020;-44
2022/11/05 01:41:08;;;;;;;7.15;2.63;;;;;;;11.23;100.00;98815.81;5094218;28;20397;-44
2022/11/05 01:43:58;;;;;;;9.48;1.52;;;;;;;11.27;100.00;98819.66;5094383;28;20028;-44
2022/11/05 01:46:35;;;;;;;4.85;1.60;;;;;;;11.11;100.00;98825.31;5094245;28;20085;-44
2022/11/05 01:49:11;;;;;;;6.35;1.40;;;;;;;10.98;100.00;98824.25;5092965;28;20036;-44
2022/11/05 01:51:38;;;;;;;15.70;2.47;;;;;;;10.97;100.00;98817.41;5094181;28;20031;-44
2022/11/05 01:54:09;;;;;;;8.35;1.55;;;;;;;11.09;100.00;98824.69;5094111;28;20425;-45
2022/11/05 01:56:39;;;;;;;14.80;2.30;;;;;;;11.15;100.00;98829.16;5092787;28;20028;-45
2022/11/05 01:59:15;;;;;;;8.68;2.10;;;;;;;11.16;100.00;98830.75;5094135;28;20038;-45
2022/11/05 02:01:40;;;;;;;5.05;1.55;;;;;;;11.23;100.00;98834.22;5093959;28;20099;-45
2022/11/05 02:04:16;;;;;;;5.28;1.65;;;;;;;11.25;99.94;98836.63;5093918;28;20119;-45
2022/11/05 02:06:45;;;;;;;9.82;1.90;;;;;;;11.28;99.93;98844.13;5094159;28;20398;-45
2022/11/05 02:09:19;;;;;;;4.28;1.63;;;;;;;11.29;99.81;98840.47;5093824;28;20039;-45
2022/11/05 02:11:46;;;;;;;6.18;1.55;;;;;;;11.18;98.70;98839.25;5092503;28;20031;-45
2022/11/05 02:14:11;;;;;;;5.85;2.03;;;;;;;11.06;98.98;98844.28;5092954;28;20016;-45
2022/11/05 02:17:04;;;;;;;5.07;1.45;;;;;;;10.83;97.90;98847.25;5093464;28;20022;-45
2022/11/05 02:20:00;;;;;;;9.02;1.58;;;;;;;11.12;100.00;98848.72;5092254;28;20044;-45
2022/11/05 02:22:50;;;;;;;5.22;2.05;;;;;;;11.46;100.00;98854.03;5093505;28;20099;-45
2022/11/05 02:25:24;;;;;;;10.90;2.00;;;;;;;11.50;100.00;98852.63;5093481;28;20031;-45
2022/11/05 02:28:27;;;;;;;9.32;2.55;;;;;;;11.65;100.00;98855.03;5093500;28;20103;-45
2022/11/05 02:30:58;;;;;;;4.10;2.30;;;;;;;11.78;99.27;98855.84;5092058;28;20024;-45
2022/11/05 02:33:48;;;;;;;6.15;1.60;;;;;;;11.48;97.11;98859.88;5092049;28;20059;-45
2022/11/05 02:36:37;;;;;;;13.65;2.20;;;;;;;11.53;98.86;98863.53;5093352;28;20080;-45
2022/11/05 02:39:45;;;;;;;4.78;1.85;;;;;;;11.71;98.84;98867.34;5093257;28;20039;-45
2022/11/05 02:42:39;;;;;;;7.03;2.13;;;;;;;11.32;96.26;98867.16;5093065;28;20032;-45
2022/11/05 02:45:23;;;;;;;12.93;2.38;;;;;;;11.39;98.32;98867.19;5093186;28;20020;-45
2022/11/05 02:48:06;;;;;;;3.35;1.42;;;;;;;11.46;98.58;98865.34;5091792;28;20034;-45
2022/11/05 02:51:18;;;;;;;41.75;4.63;;;;;;;11.20;97.45;98864.28;5093090;28;20020;-45
2022/11/05 02:53:56;;;;;;;11.20;4.95;;;;;;;10.96;97.22;98870.13;5050478;28;20032;-45
2022/11/05 02:56:32;;;;;;;11.60;1.80;;;;;;;11.11;98.58;98877.84;5050556;28;20752;-45
2022/11/05 02:58:57;;;;;;;12.02;1.95;;;;;;;11.31;99.25;98878.69;5033735;28;20108;-45
2022/11/05 03:01:23;;;;;;;5.80;2.22;;;;;;;11.53;99.40;98881.94;5033537;28;20121;-45
2022/11/05 03:03:53;;;;;;;7.30;2.15;;;;;;;11.85;100.00;98882.16;5050355;28;20025;-45
2022/11/05 03:07:10;;;;;;;4.72;1.90;;;;;;;11.76;97.88;98881.53;5050337;28;20040;-45
2022/11/05 03:10:02;;;;;;;9.68;6.15;;;;;;;11.87;98.38;98889.81;5050166;28;20033;-45
2022/11/05 03:12:39;;;;;;;8.40;1.65;;;;;;;12.14;99.01;98895.88;5033503;28;20033;-45
2022/11/05 03:15:32;;;;;;;5.72;1.80;;;;;;;12.21;98.18;98890.59;5050142;28;20120;-45
2022/11/05 03:18:15;;;;;;;7.28;1.80;;;;;;;12.36;97.75;98884.09;5050173;28;20131;-45
2022/11/05 03:20:55;;;;;;;13.50;3.30;;;;;;;12.46;97.58;98891.56;5049788;28;20057;-45
2022/11/05 03:23:36;;;;;;;5.13;1.98;;;;;;;12.30;96.12;98895.44;5033485;28;20085;-45
2022/11/05 03:26:31;;;;;;;9.90;2.13;;;;;;;12.35;96.78;98892.19;5049822;28;20040;-45
2022/11/05 03:29:07;;;;;;;3.80;1.55;;;;;;;12.31;95.38;98896.25;5091926;28;20465;-45
2022/11/05 03:31:36;;;;;;;4.97;1.70;;;;;;;11.96;93.71;98899.16;5092308;28;20032;-45
2022/11/05 03:34:04;;;;;;;7.35;2.28;;;;;;;11.83;94.26;98896.47;5092551;28;20020;-45
2022/11/05 03:36:36;;;;;;;5.05;1.90;;;;;;;11.78;95.08;98900.53;5090914;28;20401;-45
2022/11/05 03:39:07;;;;;;;13.00;2.35;;;;;;;11.73;95.03;98902.16;5092164;28;20021;-45
2022/11/05 03:41:37;;;;;;;7.53;2.13;;;;;;;11.70;94.78;98906.00;5092090;28;20112;-46
2022/11/05 03:44:06;;;;;;;3.20;1.95;;;;;;;11.76;95.96;98915.69;5090797;28;20020;-46
2022/11/05 03:46:43;;;;;;;9.40;2.30;;;;;;;11.82;96.14;98911.47;5090754;28;20028;-46
2022/11/05 03:49:16;;;;;;;10.02;2.03;;;;;;;11.90;96.24;98921.00;5092091;28;20024;-45
2022/11/05 03:52:03;;;;;;;8.00;2.33;;;;;;;11.86;95.17;98910.03;5092018;28;20045;-45
2022/11/05 03:54:29;;;;;;;7.90;2.35;;;;;;;11.86;95.74;98912.66;5091967;28;20047;-46
2022/11/05 03:57:05;;;;;;;11.55;2.90;;;;;;;11.88;95.66;98920.38;5092002;28;20024;-45
2022/11/05 03:59:38;;;;;;;3.95;2.33;;;;;;;11.92;95.72;98922.41;5091995;28;20095;-46
2022/11/05 04:02:04;;;;;;;4.10;1.98;;;;;;;11.90;95.89;98913.13;5091846;28;20024;-45
2022/11/05 04:04:29;;;;;;;5.57;2.10;;;;;;;11.93;95.60;98920.59;5091917;28;20035;-45
2022/11/05 04:15:07;;;;;;;6.28;2.22;;;;;;;12.08;95.73;98930.91;5092126;28;20074;-46
2022/11/05 04:17:33;;;;;;;5.22;2.28;;;;;;;12.05;95.73;98933.94;5091774;28;20099;-45
2022/11/05 04:25:26;;;;;;;8.43;2.78;;;;;;;12.17;94.90;98934.94;5091730;28;20039;-45
2022/11/05 04:27:56;;;;;;;6.25;2.50;;;;;;;12.13;94.61;98936.34;5091670;28;20111;-45
2022/11/05 04:30:22;;;;;;;7.35;3.05;;;;;;;12.10;94.59;98937.56;5090375;28;20123;-45
2022/11/05 04:32:56;;;;;;;7.18;2.53;;;;;;;11.98;94.49;98933.94;5090321;28;20545;-46
2022/11/05 04:35:22;;;;;;;5.75;2.20;;;;;;;11.93;94.65;98939.81;5091620;28;20482;-46
2022/11/05 04:37:48;;;;;;;7.88;2.88;;;;;;;11.91;94.44;98943.66;5092316;28;20112;-46
2022/11/05 04:40:13;;;;;;;7.63;2.70;;;;;;;11.94;94.48;98944.06;5094280;28;20059;-46
2022/11/05 04:42:39;;;;;;;5.70;2.45;;;;;;;11.97;94.46;98940.19;5094156;28;20028;-46
2022/11/05 04:45:05;;;;;;;9.85;3.17;;;;;;;11.97;94.25;98951.56;5095498;28;20064;-46
2022/11/05 04:47:30;;;;;;;10.07;2.90;;;;;;;11.98;94.46;98949.72;5095381;28;20040;-46
2022/11/05 04:49:56;;;;;;;7.57;2.72;;;;;;;12.03;94.60;98957.81;5095413;28;20031;-45
2022/11/05 04:52:22;;;;;;;8.05;3.30;;;;;;;12.04;94.46;98959.44;5095346;28;20107;-46
2022/11/05 04:54:47;;;;;;;14.63;3.65;;;;;;;12.07;94.58;98966.91;5095282;28;20016;-46
2022/11/05 04:57:13;;;;;;;7.32;2.90;;;;;;;12.08;94.43;98958.03;5093933;28;20401;-46
2022/11/05 04:59:39;;;;;;;6.05;2.70;;;;;;;12.08;94.50;98959.84;5095147;28;20031;-46
2022/11/05 05:02:05;;;;;;;6.72;3.05;;;;;;;12.02;93.75;98964.09;5095064;28;20016;-46
2022/11/05 05:04:31;;;;;;;6.70;2.70;;;;;;;12.03;94.04;98972.78;5095073;28;20073;-45
2022/11/05 05:06:57;;;;;;;11.63;3.15;;;;;;;12.03;93.63;98973.59;5093698;28;20024;-45
2022/11/05 05:09:22;;;;;;;6.57;2.90;;;;;;;12.10;94.46;98973.59;5095061;28;20028;-45
2022/11/05 05:11:48;;;;;;;6.50;3.33;;;;;;;12.10;94.11;98974.41;5093633;28;20048;-45
2022/11/05 05:14:14;;;;;;;7.15;3.08;;;;;;;12.06;93.34;98977.66;5093648;28;20024;-45
2022/11/05 05:16:39;;;;;;;15.05;3.00;;;;;;;12.02;93.28;98979.88;5094831;28;20035;-46
2022/11/05 05:19:05;;;;;;;8.57;3.90;;;;;;;11.98;93.42;98983.91;5094580;28;20020;-46
2022/11/05 05:21:41;;;;;;;9.82;4.95;;;;;;;12.03;93.63;98978.03;5094752;28;20020;-46
2022/11/05 05:24:12;;;;;;;8.07;2.80;;;;;;;12.07;93.44;98985.31;5094760;28;20032;-45
2022/11/05 05:26:41;;;;;;;5.53;3.00;;;;;;;12.17;93.50;98983.13;5094901;28;20047;-45
2022/11/05 05:29:09;;;;;;;5.00;3.00;;;;;;;12.20;92.90;98987.16;5094914;28;20108;-46
2022/11/05 05:31:35;;;;;;;7.20;3.22;;;;;;;12.21;92.62;98996.66;5093275;28;20371;-45
2022/11/05 05:34:01;;;;;;;8.98;3.08;;;;;;;12.18;92.82;98987.34;5094462;28;20058;-45
2022/11/05 05:36:28;;;;;;;6.97;2.55;;;;;;;12.21;93.55;98996.66;5093181;28;20393;-45
2022/11/05 05:38:53;;;;;;;9.57;3.85;;;;;;;12.26;93.33;98988.19;5093149;28;20028;-45
2022/11/05 05:41:19;;;;;;;5.93;2.63;;;;;;;12.22;93.32;99000.13;5092987;28;20076;-45
2022/11/05 05:43:45;;;;;;;6.32;3.22;;;;;;;12.13;91.77;98995.06;5094396;28;20050;-45
2022/11/05 05:46:14;;;;;;;6.35;2.65;;;;;;;12.13;92.21;98994.22;5094301;28;20061;-46
2022/11/05 05:48:41;;;;;;;11.73;3.38;;;;;;;12.09;91.75;98993.84;5094181;28;20031;-46
2022/11/05 05:51:10;;;;;;;5.93;2.97;;;;;;;12.09;91.64;98998.28;5094237;28;20490;-45
2022/11/05 05:53:37;;;;;;;7.50;3.13;;;;;;;12.07;92.17;99000.31;5094109;28;20038;-46
2022/11/05 05:56:04;;;;;;;7.38;3.13;;;;;;;12.10;92.76;99005.97;5094055;28;20513;-45
2022/11/05 05:58:36;;;;;;;5.93;3.20;;;;;;;12.12;93.22;99000.53;5094121;28;20027;-46
2022/11/05 06:01:06;;;;;;;9.65;3.70;;;;;;;12.14;93.27;99003.75;5093976;28;20026;-46
2022/11/05 06:03:32;;;;;;;10.30;3.28;;;;;;;12.16;93.37;99004.38;5092665;28;20117;-45
2022/11/05 06:06:04;;;;;;;10.82;4.20;;;;;;;12.14;93.51;99009.81;5092632;28;20444;-46
2022/11/05 06:08:29;;;;;;;11.88;3.35;;;;;;;12.17;92.98;99006.81;5092627;28;20038;-46
2022/11/05 06:10:55;;;;;;;6.63;2.95;;;;;;;12.18;92.69;98997.09;5093819;28;20456;-46
2022/11/05 06:13:21;;;;;;;6.53;3.20;;;;;;;12.19;92.38;99001.31;5093845;28;20028;-46
2022/11/05 06:15:47;;;;;;;5.90;3.50;;;;;;;12.24;92.11;99006.00;5093717;28;20100;-46
2022/11/05 06:18:12;;;;;;;6.55;3.60;;;;;;;12.25;92.09;99002.34;5093721;28;20024;-45
2022/11/05 06:20:38;;;;;;;4.70;3.10;;;;;;;12.25;91.77;99008.41;5093424;28;20118;-46
2022/11/05 06:23:04;;;;;;;15.07;3.60;;;;;;;12.25;91.75;99016.28;5093555;28;20502;-46
2022/11/05 06:25:29;;;;;;;11.23;2.97;;;;;;;12.26;92.17;99010.03;5092212;28;20485;-46
2022/11/05 06:27:55;;;;;;;6.65;3.60;;;;;;;12.35;92.13;99008.00;5093503;28;20020;-45
2022/11/05 06:30:22;;;;;;;5.57;3.60;;;;;;;12.32;92.00;99013.69;5092107;28;20024;-46
2022/11/05 06:32:48;;;;;;;8.93;3.60;;;;;;;12.29;91.69;99014.06;5093377;28;20023;-46
2022/11/05 06:35:13;;;;;;;5.75;3.88;;;;;;;12.29;92.70;99014.88;5075225;28;20028;-46
2022/11/05 06:37:39;;;;;;;7.15;3.80;;;;;;;12.33;93.75;99023.97;5075232;28;20020;-46
2022/11/05 06:40:06;;;;;;;9.43;3.60;;;;;;;12.34;93.74;99024.81;5091930;28;20031;-45
2022/11/05 06:42:32;;;;;;;8.38;3.85;;;;;;;12.38;93.57;99015.50;5093100;28;20032;-46
2022/11/05 06:44:57;;;;;;;7.60;3.67;;;;;;;12.42;94.21;99024.59;5091876;28;20035;-46
2022/11/05 06:47:23;;;;;;;5.78;5.22;;;;;;;12.34;92.92;99024.81;5093141;28;20035;-45
2022/11/05 06:49:49;;;;;;;6.97;3.40;;;;;;;12.23;92.08;99025.41;5093121;28;20041;-46
2022/11/05 06:52:15;;;;;;;13.70;4.22;;;;;;;12.19;92.92;99031.09;5093083;28;20024;-46
2022/11/05 06:54:42;;;;;;;7.28;3.35;;;;;;;12.16;93.37;99033.31;5091677;28;20627;-46
2022/11/05 06:57:10;;;;;;;7.88;3.53;;;;;;;12.16;94.35;99028.03;5093140;28;20020;-46
2022/11/05 06:59:39;;;;;;;16.13;3.67;;;;;;;12.17;94.37;99041.00;5091611;28;20551;-46
2022/11/05 07:02:06;;;;;;;9.40;3.50;;;;;;;12.23;94.26;99039.38;5090982;28;20016;-46
2022/11/05 07:04:32;;;;;;;9.75;3.97;;;;;;;12.40;94.93;99045.06;5092790;28;20028;-46
2022/11/05 07:07:01;;;;;;;8.15;4.03;;;;;;;12.47;94.02;99045.03;5091463;28;20031;-45
2022/11/05 07:09:27;;;;;;;8.75;3.40;;;;;;;12.53;94.07;99046.84;5091423;28;20031;-45
2022/11/05 07:11:53;;;;;;;12.77;3.90;;;;;;;12.57;94.14;99054.13;5091346;28;20054;-46
2022/11/05 07:14:19;;;;;;;10.90;3.83;;;;;;;12.50;92.55;99055.19;5092657;28;20020;-45
2022/11/05 07:16:45;;;;;;;6.88;3.40;;;;;;;12.48;92.61;99060.63;5091290;28;20516;-45
2022/11/05 07:19:10;;;;;;;8.10;3.20;;;;;;;12.49;91.08;99062.25;5090993;28;20058;-46
2022/11/05 07:21:36;;;;;;;8.63;3.17;;;;;;;12.47;91.33;99066.91;5092454;28;20035;-46
2022/11/05 07:24:02;;;;;;;10.27;3.67;;;;;;;12.45;91.90;99068.94;5091165;28;20051;-45
2022/11/05 07:26:27;;;;;;;9.50;7.40;;;;;;;12.44;91.42;99069.97;5092443;28;20498;-45
2022/11/05 07:28:54;;;;;;;8.88;4.38;;;;;;;12.48;92.35;99070.38;5091119;28;20024;-45
2022/11/05 07:31:20;;;;;;;7.30;3.53;;;;;;;12.53;92.45;99075.81;5092246;28;20100;-45
2022/11/05 07:33:45;;;;;;;7.47;3.40;;;;;;;12.51;91.72;99076.00;5092295;28;20111;-45
2022/11/05 07:36:11;;;;;;;7.07;3.72;;;;;;;12.52;91.44;99082.91;5090956;28;20108;-45
2022/11/05 07:38:37;;;;;;;6.15;3.47;;;;;;;12.50;91.88;99089.41;5092489;28;20020;-46
2022/11/05 07:41:02;;;;;;;6.65;3.65;;;;;;;12.51;92.00;99094.44;5090777;28;20111;-45
2022/11/05 07:43:28;;;;;;;10.15;3.70;;;;;;;12.56;92.35;99099.91;5092195;28;20031;-45
2022/11/05 07:45:54;;;;;;;11.20;3.70;;;;;;;12.57;91.55;99103.34;5092126;28;20036;-45
2022/11/05 07:48:19;;;;;;;10.55;3.70;;;;;;;12.54;90.77;99104.59;5092161;28;20028;-45
2022/11/05 07:50:45;;;;;;;8.98;3.47;;;;;;;12.49;89.99;99109.63;5092076;28;20024;-45
2022/11/05 07:53:13;;;;;;;11.30;3.63;;;;;;;12.45;90.50;99105.78;5090749;28;20444;-45
2022/11/05 07:55:40;;;;;;;6.22;3.45;;;;;;;12.46;89.17;99110.03;5090934;28;20549;-46
2022/11/05 07:58:05;;;;;;;8.88;3.17;;;;;;;12.43;88.31;99114.91;5090675;28;20482;-45
2022/11/05 08:00:32;;;;;;;5.57;3.17;;;;;;;12.57;88.95;99108.63;5090615;28;20024;-45
2022/11/05 08:03:04;;;;;;;11.27;3.58;;;;;;;12.84;90.16;99113.88;5091861;28;20397;-46
2022/11/05 08:05:35;;;;;;;10.00;3.45;;;;;;;13.19;89.53;99111.78;5091915;28;20040;-45
2022/11/05 08:08:02;;;;;;;11.50;3.85;;;;;;;13.44;88.28;99113.78;5090647;28;20067;-46
2022/11/05 08:10:28;;;;;;;8.10;2.72;;;;;;;14.18;90.85;99112.41;5090466;28;20398;-46
2022/11/05 08:12:55;;;;;;;12.10;3.83;;;;;;;14.87;86.88;99112.50;5091489;28;20032;-46
2022/11/05 08:15:22;;;;;;;8.88;3.10;;;;;;;15.32;83.63;99102.50;5094778;28;20253;-46
2022/11/05 08:17:49;;;;;;;5.70;3.10;;;;;;;15.22;83.65;99098.75;5094728;28;20055;-45
2022/11/05 08:20:16;;;;;;;9.65;3.40;;;;;;;14.81;81.02;99114.19;5094329;28;20059;-45
2022/11/05 08:22:45;;;;;;;7.43;3.60;;;;;;;14.28;79.00;99117.22;5094570;28;20062;-45
2022/11/05 08:25:11;;;;;;;14.18;3.67;;;;;;;13.98;81.73;99123.06;5095928;28;20036;-45
2022/11/05 08:27:38;;;;;;;12.88;3.60;;;;;;;13.88;82.27;99125.38;5094819;28;20074;-45
2022/11/05 08:30:06;;;;;;;9.32;3.50;;;;;;;13.75;83.15;99129.69;5094506;28;20028;-45
2022/11/05 08:32:32;;;;;;;5.38;3.47;;;;;;;13.77;84.93;99125.00;5094284;28;20054;-45
2022/11/05 08:34:57;;;;;;;9.00;3.30;;;;;;;13.87;85.47;99123.75;5095740;28;20486;-45
2022/11/05 08:37:23;;;;;;;10.70;3.40;;;;;;;13.83;83.31;99126.00;5094336;28;20028;-45
2022/11/05 08:39:49;;;;;;;11.00;3.42;;;;;;;13.78;84.98;99123.16;5094317;28;20027;-45
2022/11/05 08:42:15;;;;;;;7.68;3.90;;;;;;;13.58;82.08;99129.34;5094174;28;20020;-45
2022/11/05 08:44:40;;;;;;;9.35;3.30;;;;;;;13.37;82.50;99127.00;5094241;28;20086;-45
2022/11/05 08:47:06;;;;;;;10.82;3.60;;;;;;;13.23;82.97;99130.66;5094159;28;20034;-45
2022/11/05 08:49:32;;;;;;;7.93;3.70;;;;;;;13.19;83.21;99125.78;5095446;28;20024;-45
2022/11/05 08:51:57;;;;;;;13.90;4.07;;;;;;;13.22;82.01;99119.31;5094115;28;20028;-45
2022/11/05 08:54:23;;;;;;;6.72;3.85;;;;;;;13.25;83.38;99121.50;5094020;28;20523;-45
2022/11/05 08:56:49;;;;;;;6.40;3.03;;;;;;;13.29;81.25;99117.47;5094059;28;20441;-45
2022/11/05 08:59:15;;;;;;;10.93;3.60;;;;;;;13.48;84.10;99120.25;5095266;28;20486;-45
2022/11/05 09:01:40;;;;;;;10.00;3.10;;;;;;;13.79;85.67;99122.97;5095224;28;20028;-46
2022/11/05 09:04:07;;;;;;;13.48;3.42;;;;;;;14.07;85.28;99127.09;5095236;28;20485;-46
2022/11/05 09:06:33;;;;;;;8.98;3.75;;;;;;;14.37;84.70;99122.03;5093752;28;20111;-46
2022/11/05 09:08:58;;;;;;;7.15;3.03;;;;;;;14.50;82.30;99118.47;5093772;28;20115;-45
2022/11/05 09:11:24;;;;;;;4.90;2.83;;;;;;;14.48;78.20;99128.44;5093706;28;20081;-45
2022/11/05 09:13:50;;;;;;;11.38;3.70;;;;;;;14.60;79.67;99125.16;5093707;28;20040;-46
2022/11/05 09:16:25;;;;;;;6.50;2.80;;;;;;;14.80;79.91;99119.69;5094856;28;20054;-46
2022/11/05 09:18:51;;;;;;;7.13;2.65;;;;;;;14.91;80.60;99122.44;5095016;28;20030;-45
2022/11/05 09:21:18;;;;;;;8.38;2.95;;;;;;;15.26;79.95;99126.38;5094518;28;20048;-46
2022/11/05 09:23:44;;;;;;;7.35;3.80;;;;;;;15.40;78.31;99125.19;5093067;28;20024;-45
2022/11/05 09:26:11;;;;;;;6.70;2.45;;;;;;;15.46;75.43;99124.31;5093426;28;20097;-46
2022/11/05 09:28:38;;;;;;;12.88;3.83;;;;;;;15.47;75.47;99125.09;5094993;28;20040;-45
2022/11/05 09:31:09;;;;;;;9.60;2.70;;;;;;;15.36;75.11;99127.47;5093327;28;20031;-46
2022/11/05 09:33:37;;;;;;;7.70;2.65;;;;;;;15.23;75.66;99124.97;5093247;28;20055;-46
2022/11/05 09:36:03;;;;;;;6.53;3.10;;;;;;;14.92;75.64;99128.53;5094583;28;20065;-45
2022/11/05 09:38:31;;;;;;;10.05;2.65;;;;;;;14.79;76.42;99134.75;5093179;28;20036;-46
2022/11/05 09:41:01;;;;;;;11.00;2.58;;;;;;;14.84;77.16;99137.53;5093489;28;20364;-46
2022/11/05 09:43:38;;;;;;;9.65;3.17;;;;;;;14.78;75.02;99147.13;5094362;28;20024;-46
2022/11/05 09:46:15;;;;;;;10.52;2.70;;;;;;;14.82;75.22;99144.06;5094435;28;20027;-46
2022/11/05 09:48:44;;;;;;;7.18;2.97;;;;;;;15.04;76.04;99137.34;5094954;28;20035;-46
2022/11/05 09:51:14;;;;;;;8.07;2.75;;;;;;;14.89;75.12;99135.06;5092958;28;20051;-45
2022/11/05 09:53:41;;;;;;;11.63;3.80;;;;;;;14.77;74.94;99142.09;5092934;28;20036;-45
2022/11/05 09:56:25;;;;;;;9.00;3.10;;;;;;;14.60;74.49;99141.00;5094153;28;20020;-46
2022/11/05 09:58:58;;;;;;;12.38;3.17;;;;;;;14.63;76.38;99141.38;5093020;28;20064;-46
2022/11/05 10:01:31;;;;;;;10.82;6.15;;;;;;;14.54;75.38;99147.91;5092621;28;20096;-46
2022/11/05 10:04:01;;;;;;;18.45;8.00;;;;;;;14.66;76.47;99156.78;5094013;28;20032;-45
2022/11/05 10:06:27;;;;;;;5.78;3.60;;;;;;;14.89;75.47;99150.09;5092657;28;20104;-45
2022/11/05 10:09:05;;;;;;;54.80;48.70;;;;;;;14.98;74.12;99165.47;5092617;28;20074;-46
2022/11/05 10:11:40;;;;;;;141.30;119.47;;;;;;;15.09;73.83;99156.03;5094127;28;20048;-46
2022/11/05 10:14:15;;;;;;;111.95;95.93;;;;;;;14.96;72.67;99178.09;5092599;28;20035;-45
2022/11/05 10:16:46;;;;;;;947.63;523.50;;;;;;;14.74;72.88;99175.00;5093746;28;20043;-45
2022/11/05 10:19:26;;;;;;;412.48;268.98;;;;;;;14.72;72.39;99170.97;5093524;28;20028;-46
2022/11/05 10:22:12;;;;;;;242.85;213.02;;;;;;;14.92;73.64;99155.75;5092582;28;20035;-45
2022/11/05 10:24:43;;;;;;;243.20;219.20;;;;;;;15.14;73.34;99155.38;5093685;28;20031;-46
2022/11/05 10:27:16;;;;;;;212.07;190.52;;;;;;;15.09;71.15;99160.47;5093599;28;20050;-46
2022/11/05 10:29:43;;;;;;;429.33;375.95;;;;;;;15.05;72.86;99161.94;5092259;28;20032;-45
2022/11/05 10:32:15;;;;;;;314.65;279.10;;;;;;;14.81;69.58;99159.13;5093439;28;20034;-45
2022/11/05 10:34:41;;;;;;;299.27;248.68;;;;;;;14.54;70.67;99164.56;5093383;28;20032;-45
2022/11/05 10:37:08;;;;;;;298.35;232.38;;;;;;;14.42;69.08;99147.78;5092600;28;20031;-45
2022/11/05 10:39:34;;;;;;;343.23;276.90;;;;;;;14.30;70.21;99163.50;5093283;28;20024;-45
2022/11/05 10:42:26;;;;;;;239.57;180.95;;;;;;;14.77;72.28;99163.22;5091814;28;20024;-45
2022/11/05 10:45:15;;;;;;;153.45;107.13;;;;;;;15.16;64.56;99155.94;5093219;28;20060;-46
2022/11/05 10:48:05;;;;;;;137.02;100.22;;;;;;;15.53;67.58;99161.25;5093204;28;20071;-46
2022/11/05 10:50:31;;;;;;;104.47;93.28;;;;;;;16.20;67.33;99147.22;5093089;28;20024;-46
2022/11/05 10:52:57;;;;;;;167.63;143.63;;;;;;;16.96;65.59;99151.78;5091778;28;20085;-46
2022/11/05 10:55:34;;;;;;;160.65;137.80;;;;;;;17.96;61.31;99143.75;5091671;28;20422;-46
2022/11/05 10:58:30;;;;;;;58.05;48.88;;;;;;;18.09;58.39;99134.69;5093035;28;20024;-46
2022/11/05 11:00:56;;;;;;;32.55;24.08;;;;;;;19.36;59.36;99127.13;5080192;28;20042;-43
2022/11/05 11:03:36;;;;;;;32.30;24.65;;;;;;;19.82;47.21;99116.19;5092837;28;20024;-43
2022/11/05 11:06:20;;;;;;;37.05;30.50;;;;;;;19.89;49.99;99114.16;5091566;28;20379;-43
2022/11/05 11:08:47;;;;;;;11.02;8.00;;;;;;;20.31;52.10;99124.97;5092845;28;20035;-44
2022/11/05 11:11:25;;;;;;;21.40;13.15;;;;;;;20.44;50.75;99117.59;5091368;28;20024;-43
2022/11/05 11:14:13;;;;;;;47.50;32.70;;;;;;;19.68;49.25;99119.25;5091431;28;20034;-44
2022/11/05 11:16:41;;;;;;;30.75;19.50;;;;;;;19.76;55.52;99110.03;5092591;28;20072;-44
2022/11/05 11:19:29;;;;;;;60.10;52.78;;;;;;;20.25;51.95;99112.63;5091037;28;20422;-45
2022/11/05 11:22:03;;;;;;;53.88;41.92;;;;;;;19.78;48.87;99113.25;5077725;28;20040;-44
2022/11/05 11:24:40;;;;;;;61.88;55.35;;;;;;;19.70;50.02;99101.16;5091545;28;20070;-43
2022/11/05 11:27:14;;;;;;;48.35;43.15;;;;;;;19.86;49.18;99112.81;5092746;28;20449;-44
2022/11/05 11:29:43;;;;;;;36.10;31.63;;;;;;;20.24;49.47;99124.38;5092489;28;20027;-44
2022/11/05 11:32:15;;;;;;;25.17;21.10;;;;;;;20.91;48.27;99122.25;5090968;28;20107;-44
2022/11/05 11:34:43;;;;;;;19.75;16.08;;;;;;;21.46;48.70;99125.50;5092393;28;20020;-44
2022/11/05 11:37:26;;;;;;;9.45;4.30;;;;;;;22.37;46.47;99124.09;5092248;28;20033;-44
2022/11/05 11:40:17;;;;;;;19.83;12.30;;;;;;;22.54;46.57;99129.22;5092315;28;20401;-44
2022/11/05 11:42:46;;;;;;;22.02;13.95;;;;;;;21.65;46.64;99120.47;5091850;28;20032;-43
2022/11/05 11:45:17;;;;;;;12.75;8.30;;;;;;;20.50;46.46;99124.56;5090785;28;20043;-44
2022/11/05 11:47:46;;;;;;;7.60;4.53;;;;;;;19.35;44.69;99125.50;5090702;28;20024;-43
2022/11/05 11:50:42;;;;;;;8.45;4.10;;;;;;;18.26;45.98;99129.41;5092026;28;20028;-43
2022/11/05 11:53:25;;;;;;;6.50;2.95;;;;;;;17.91;47.02;99128.53;5089471;28;20091;-43
2022/11/05 11:56:10;;;;;;;9.88;3.60;;;;;;;18.48;45.11;99130.31;5092291;28;20032;-43
2022/11/05 11:58:53;;;;;;;17.38;4.68;;;;;;;18.29;46.33;99127.09;5092358;28;20031;-43
2022/11/05 12:01:46;;;;;;;8.35;2.85;;;;;;;18.10;46.90;99129.16;5091833;28;20016;-43
2022/11/05 12:04:12;;;;;;;7.88;2.85;;;;;;;17.67;45.30;99125.13;5092139;28;20024;-43
2022/11/05 12:07:03;;;;;;;7.32;2.95;;;;;;;17.01;46.63;99115.81;5090569;28;20024;-43
2022/11/05 12:10:08;;;;;;;9.60;3.53;;;;;;;16.56;47.35;99114.50;5091950;28;20035;-43
2022/11/05 12:12:39;;;;;;;7.50;2.28;;;;;;;16.64;48.67;99118.63;5091899;28;20067;-43
2022/11/05 12:15:27;;;;;;;6.70;2.53;;;;;;;17.63;49.38;99126.66;5091872;28;20081;-43
2022/11/05 12:18:00;;;;;;;10.90;2.80;;;;;;;18.65;46.25;99124.19;5090515;28;20054;-44
2022/11/05 12:20:45;;;;;;;9.38;2.47;;;;;;;19.41;44.96;99119.19;5091504;28;20052;-43
2022/11/05 12:23:34;;;;;;;9.30;3.05;;;;;;;19.74;43.98;99117.47;5091747;28;20035;-43
2022/11/05 12:26:21;;;;;;;10.00;3.90;;;;;;;20.15;41.41;99108.03;5091827;28;20031;-44